createdAt,value
2022-11-07T00:03:35.159Z,66.46
2022-11-07T00:09:06.372Z,66.11
2022-11-07T00:14:37.694Z,66.24
2022-11-07T00:20:09.891Z,66.47
2022-11-07T00:25:41.353Z,66.41
2022-11-07T00:31:14.176Z,66.79
2022-11-07T00:36:45.687Z,66.72
2022-11-07T00:42:17.051Z,66.75
2022-11-07T00:47:48.077Z,66.92
2022-11-07T00:53:19.590Z,66.74
2022-11-07T00:58:57.969Z,66.46
2022-11-07T01:04:48.100Z,66.90
2022-11-07T01:10:19.444Z,66.94
2022-11-07T01:15:50.824Z,66.84
2022-11-07T01:21:22.775Z,66.83
2022-11-07T01:26:53.933Z,67.06
2022-11-07T01:32:24.878Z,67.10
2022-11-07T01:37:56.283Z,67.19
2022-11-07T01:43:42.538Z,67.14
2022-11-07T01:49:21.253Z,66.94
2022-11-07T01:55:09.137Z,67.45
2022-11-07T02:00:40.657Z,67.26
2022-11-07T02:06:19.510Z,66.83
2022-11-07T02:11:50.926Z,66.73
2022-11-07T02:17:22.245Z,67.23
2022-11-07T02:23:18.073Z,66.87
2022-11-07T02:28:49.773Z,67.14
2022-11-07T02:34:21.147Z,67.33
2022-11-07T02:39:52.216Z,67.19
2022-11-07T02:45:28.399Z,67.53
2022-11-07T02:51:00.077Z,67.17
2022-11-07T02:56:31.423Z,67.23
2022-11-07T03:02:02.597Z,67.40
2022-11-07T03:07:33.961Z,67.31
2022-11-07T03:13:04.998Z,67.30
2022-11-07T03:18:36.851Z,67.26
2022-11-07T03:24:08.237Z,67.23
2022-11-07T03:29:39.592Z,67.18
2022-11-07T03:35:11.475Z,67.13
2022-11-07T03:40:42.492Z,67.15
2022-11-07T03:46:14.815Z,66.96
2022-11-07T03:51:45.656Z,67.33
2022-11-07T03:57:16.613Z,67.00
2022-11-07T04:02:48.284Z,67.08
2022-11-07T04:08:19.625Z,67.02
2022-11-07T04:14:09.455Z,67.26
2022-11-07T04:19:40.746Z,67.13
2022-11-07T04:25:12.408Z,67.47
2022-11-07T04:30:44.216Z,67.22
2022-11-07T04:36:15.567Z,67.33
2022-11-07T04:41:46.907Z,67.42
2022-11-07T04:47:17.861Z,67.53
2022-11-07T04:52:49.033Z,67.36
2022-11-07T04:58:20.543Z,67.17
2022-11-07T05:03:51.877Z,67.42
2022-11-07T05:09:23.015Z,67.59
2022-11-07T05:14:55.004Z,67.79
2022-11-07T05:20:29.097Z,67.94
2022-11-07T05:26:00.118Z,67.71
2022-11-07T05:31:31.779Z,67.64
2022-11-07T05:37:02.888Z,67.99
2022-11-07T05:42:34.327Z,67.91
2022-11-07T05:48:07.770Z,67.69
2022-11-07T05:53:38.672Z,67.81
2022-11-07T05:59:10.485Z,68.12
2022-11-07T06:04:41.616Z,68.41
2022-11-07T06:10:12.835Z,68.58
2022-11-07T06:15:45.416Z,68.63
2022-11-07T06:21:17.241Z,68.64
2022-11-07T06:26:48.231Z,69.01
2022-11-07T06:32:19.358Z,68.92
2022-11-07T06:37:50.603Z,69.50
2022-11-07T06:43:21.827Z,69.19
2022-11-07T06:48:52.932Z,69.00
2022-11-07T06:54:24.478Z,68.94
2022-11-07T06:59:55.985Z,69.28
2022-11-07T07:05:27.615Z,69.13
2022-11-07T07:11:03.177Z,68.89
2022-11-07T07:16:34.392Z,68.89
2022-11-07T07:22:05.406Z,69.09
2022-11-07T07:27:36.355Z,69.35
2022-11-07T07:33:07.402Z,69.18
2022-11-07T07:38:39.311Z,69.30
2022-11-07T07:44:10.910Z,69.41
2022-11-07T07:49:42.426Z,69.65
2022-11-07T07:55:13.600Z,69.56
2022-11-07T08:00:45.021Z,70.00
2022-11-07T08:06:16.606Z,69.50
2022-11-07T08:11:47.913Z,69.64
2022-11-07T08:17:18.943Z,69.71
2022-11-07T08:22:50.517Z,70.59
2022-11-07T08:28:23.518Z,70.27
2022-11-07T08:33:58.803Z,69.25
2022-11-07T08:39:30.158Z,69.91
2022-11-07T08:45:01.539Z,69.86
2022-11-07T08:50:32.670Z,69.38
2022-11-07T08:56:10.540Z,69.51
2022-11-07T09:02:15.210Z,69.75
2022-11-07T09:07:32.768Z,69.71
2022-11-07T09:13:03.877Z,69.77
2022-11-07T09:18:35.027Z,69.25
2022-11-07T09:24:08.238Z,69.39
2022-11-07T09:29:40.521Z,69.80
2022-11-07T09:35:11.665Z,70.00
2022-11-07T09:40:54.466Z,70.00
2022-11-07T09:46:40.495Z,70.43
2022-11-07T09:52:36.126Z,70.14
2022-11-07T09:58:26.661Z,69.80
2022-11-07T10:04:23.574Z,70.11
2022-11-07T10:10:03.746Z,69.95
2022-11-07T10:16:07.341Z,69.72
2022-11-07T10:21:49.645Z,70.05
2022-11-07T10:27:21.406Z,69.19
2022-11-07T10:33:13.904Z,69.70
2022-11-07T10:38:45.328Z,69.73
2022-11-07T10:44:25.364Z,69.89
2022-11-07T10:50:01.351Z,69.94
2022-11-07T10:55:43.155Z,70.06
2022-11-07T11:01:14.399Z,70.25
2022-11-07T11:06:45.594Z,70.12
2022-11-07T11:12:17.282Z,70.28
2022-11-07T11:18:06.881Z,69.97
2022-11-07T11:23:42.806Z,70.37
2022-11-07T11:29:24.460Z,70.02
2022-11-07T11:35:42.126Z,70.00
2022-11-07T11:41:29.663Z,70.38
2022-11-07T11:47:29.142Z,70.25
2022-11-07T11:53:05.984Z,70.20
2022-11-07T11:59:06.076Z,70.25
2022-11-07T12:05:15.612Z,69.85
2022-11-07T12:10:46.457Z,69.91
2022-11-07T12:16:29.728Z,70.21
2022-11-07T12:22:51.970Z,70.07
2022-11-07T12:28:55.099Z,70.47
2022-11-07T12:34:55.152Z,70.37
2022-11-07T12:40:28.779Z,70.52
2022-11-07T12:46:32.444Z,70.17
2022-11-07T12:52:22.592Z,70.64
2022-11-07T12:57:55.571Z,70.30
2022-11-07T13:03:34.068Z,70.16
2022-11-07T13:09:08.743Z,70.47
2022-11-07T13:14:43.746Z,70.06
2022-11-07T13:20:20.968Z,70.05
2022-11-07T13:26:03.979Z,70.16
2022-11-07T13:31:40.770Z,70.42
2022-11-07T13:37:23.003Z,70.35
2022-11-07T13:42:59.649Z,70.41
2022-11-07T13:48:42.455Z,70.07
2022-11-07T13:54:32.770Z,70.00
2022-11-07T14:00:14.516Z,69.89
2022-11-07T14:05:48.450Z,70.39
2022-11-07T14:11:22.067Z,69.96
2022-11-07T14:16:57.604Z,70.62
2022-11-07T14:22:31.635Z,70.29
2022-11-07T14:28:07.179Z,70.26
2022-11-07T14:33:38.688Z,70.58
2022-11-07T14:39:15.696Z,70.07
2022-11-07T14:44:56.234Z,70.27
2022-11-07T14:50:28.574Z,70.31
2022-11-07T14:56:04.245Z,70.07
2022-11-07T15:01:35.618Z,69.99
2022-11-07T15:07:27.953Z,69.91
2022-11-07T15:13:04.886Z,69.83
2022-11-07T15:18:41.572Z,70.17
2022-11-07T15:24:34.431Z,70.40
2022-11-07T15:30:06.587Z,70.15
2022-11-07T15:35:44.450Z,70.89
2022-11-07T15:41:16.861Z,70.54
2022-11-07T15:46:48.034Z,70.52
2022-11-07T15:52:19.133Z,70.27
2022-11-07T15:57:52.266Z,70.91
2022-11-07T16:03:25.649Z,70.97
2022-11-07T16:08:57.308Z,70.45
2022-11-07T16:14:44.789Z,70.55
2022-11-07T16:20:21.545Z,70.61
2022-11-07T16:25:52.730Z,71.21
2022-11-07T16:31:24.449Z,71.01
2022-11-07T16:36:55.845Z,70.79
2022-11-07T16:42:27.552Z,70.60
2022-11-07T16:48:02.523Z,70.38
2022-11-07T16:53:33.933Z,71.17
2022-11-07T16:59:06.727Z,70.72
2022-11-07T17:04:38.029Z,70.66
2022-11-07T17:10:14.786Z,70.77
2022-11-07T17:15:46.280Z,70.22
2022-11-07T17:21:27.520Z,70.65
2022-11-07T17:26:59.357Z,70.60
2022-11-07T17:32:30.406Z,70.60
2022-11-07T17:38:01.419Z,70.59
2022-11-07T17:43:32.405Z,70.84
2022-11-07T17:49:09.377Z,70.57
2022-11-07T17:54:40.344Z,70.40
2022-11-07T18:00:17.361Z,70.57
2022-11-07T18:05:49.491Z,70.90
2022-11-07T18:11:21.848Z,70.48
2022-11-07T18:16:52.828Z,70.50
2022-11-07T18:22:23.875Z,70.75
2022-11-07T18:27:55.069Z,70.68
2022-11-07T18:33:25.948Z,70.20
2022-11-07T18:39:05.352Z,70.16
2022-11-07T18:44:36.701Z,70.33
2022-11-07T18:50:08.154Z,70.18
2022-11-07T18:55:39.366Z,70.53
2022-11-07T19:01:16.066Z,70.97
2022-11-07T19:06:57.358Z,70.55
2022-11-07T19:12:29.832Z,70.10
2022-11-07T19:18:01.728Z,70.59
2022-11-07T19:23:36.736Z,70.76
2022-11-07T19:29:11.614Z,70.24
2022-11-07T19:34:42.822Z,70.50
2022-11-07T19:40:14.387Z,70.76
2022-11-07T19:45:45.892Z,70.74
2022-11-07T19:51:22.180Z,70.48
2022-11-07T19:56:57.418Z,70.78
2022-11-07T20:02:34.698Z,70.83
2022-11-07T20:08:07.090Z,71.05
2022-11-07T20:13:38.259Z,70.38
2022-11-07T20:19:11.626Z,70.34
2022-11-07T20:24:42.674Z,70.88
2022-11-07T20:30:14.372Z,70.43
2022-11-07T20:35:45.395Z,70.70
2022-11-07T20:41:16.791Z,70.75
2022-11-07T20:46:48.477Z,70.35
2022-11-07T20:52:19.437Z,70.68
2022-11-07T20:57:50.464Z,71.12
2022-11-07T21:03:21.556Z,70.81
2022-11-07T21:08:53.157Z,70.70
2022-11-07T21:14:24.744Z,70.31
2022-11-07T21:19:56.207Z,70.30
2022-11-07T21:25:27.602Z,70.79
2022-11-07T21:31:03.957Z,70.15
2022-11-07T21:36:35.443Z,70.78
2022-11-07T21:42:06.507Z,70.72
2022-11-07T21:47:43.227Z,70.73
2022-11-07T21:53:17.066Z,70.25
2022-11-07T21:58:50.498Z,70.71
2022-11-07T22:04:21.539Z,71.10
2022-11-07T22:09:52.764Z,70.88
2022-11-07T22:15:24.022Z,71.15
2022-11-07T22:20:58.754Z,70.92
2022-11-07T22:26:30.191Z,70.93
2022-11-07T22:32:01.622Z,70.52
2022-11-07T22:37:32.611Z,70.57
2022-11-07T22:43:04.074Z,70.59
2022-11-07T22:48:35.609Z,70.66
2022-11-07T22:54:08.850Z,70.87
2022-11-07T22:59:39.910Z,70.70
2022-11-07T23:05:11.265Z,71.17
2022-11-07T23:10:42.642Z,70.94
2022-11-07T23:16:28.537Z,71.02
2022-11-07T23:22:02.969Z,71.15
2022-11-07T23:27:34.295Z,70.97
2022-11-07T23:33:05.738Z,71.27
2022-11-07T23:38:36.804Z,71.34
2022-11-07T23:44:09.820Z,70.86
2022-11-07T23:49:59.313Z,71.33
2022-11-07T23:55:42.622Z,71.36
